Time;durP1;ratioP1;P1;durP2;ratioP2;P2;SDS_P1;SDS_P2;PMS_P1;PMS_P2;Temp;Humidity;BMP_temperature;BMP_pressure;BME280_temperature;BME280_humidity;BME280_pressure;Samples;Min_cycle;Max_cycle;Signal;HPM_P1;HPM_P2
2021/05/21 00:02:16;;;;;;;13.60;7.80;;;;;;;14.27;76.24;98685.47;5004903;28;20136;-73
2021/05/21 00:04:41;;;;;;;11.07;7.80;;;;;;;14.36;76.26;98687.63;4986271;28;20125;-66
2021/05/21 00:07:10;;;;;;;11.23;7.90;;;;;;;14.35;76.05;98685.09;5010247;28;20037;-66
2021/05/21 00:09:36;;;;;;;14.40;8.05;;;;;;;14.48;75.76;98686.16;5015578;28;20048;-69
2021/05/21 00:12:02;;;;;;;11.95;7.10;;;;;;;14.55;74.89;98663.56;5012057;28;20089;-69
2021/05/21 00:14:28;;;;;;;12.20;7.40;;;;;;;14.75;74.70;98685.53;5032226;28;20091;-68
2021/05/21 00:16:53;;;;;;;10.90;7.18;;;;;;;14.65;74.26;98670.09;5030041;28;20420;-70
2021/05/21 00:19:19;;;;;;;14.07;7.40;;;;;;;14.71;74.59;98681.31;5020831;28;20068;-74
2021/05/21 00:21:45;;;;;;;10.27;7.10;;;;;;;14.86;74.13;98671.59;4995625;28;20046;-70
2021/05/21 00:24:11;;;;;;;12.02;7.47;;;;;;;15.02;73.49;98672.47;4974675;28;20042;-68
2021/05/21 00:26:37;;;;;;;13.90;7.78;;;;;;;14.84;74.03;98682.38;4990350;28;20037;-67
2021/05/21 00:29:03;;;;;;;11.68;7.25;;;;;;;14.81;74.18;98687.00;4998209;28;20042;-71
2021/05/21 00:31:29;;;;;;;11.48;7.40;;;;;;;14.92;74.03;98679.28;5016330;28;20124;-66
2021/05/21 00:34:12;;;;;;;15.52;7.65;;;;;;;14.60;74.63;98673.00;5008149;28;20048;-66
2021/05/21 00:36:39;;;;;;;11.80;7.60;;;;;;;14.82;74.05;98692.25;5005561;28;20132;-69
2021/05/21 00:39:05;;;;;;;12.68;7.28;;;;;;;14.93;73.98;98697.91;5007515;28;20049;-72
2021/05/21 00:41:33;;;;;;;13.80;7.45;;;;;;;14.93;74.45;98686.34;5007410;28;20050;-68
2021/05/21 00:43:58;;;;;;;14.10;7.28;;;;;;;14.81;74.72;98695.00;5020786;28;20052;-77
2021/05/21 00:46:26;;;;;;;10.95;6.60;;;;;;;14.75;74.65;98695.38;5017860;28;20745;-67
2021/05/21 00:48:52;;;;;;;12.23;7.35;;;;;;;14.52;75.15;98685.03;5016012;28;20477;-68
2021/05/21 00:51:18;;;;;;;11.10;5.97;;;;;;;14.23;76.81;98707.06;5006473;28;20045;-66
2021/05/21 00:53:45;;;;;;;10.30;7.38;;;;;;;14.34;76.69;98692.22;5006432;28;20662;-67
2021/05/21 00:56:12;;;;;;;11.50;6.68;;;;;;;14.53;75.98;98702.78;4992475;28;20640;-67
2021/05/21 00:58:38;;;;;;;12.77;6.90;;;;;;;14.16;77.45;98703.78;5013140;28;20501;-69
2021/05/21 01:01:05;;;;;;;10.50;5.25;;;;;;;14.08;78.02;98697.97;5009723;28;20092;-74
2021/05/21 01:03:31;;;;;;;15.00;7.28;;;;;;;14.34;77.03;98712.66;5013686;28;20092;-68
2021/05/21 01:05:57;;;;;;;10.98;6.72;;;;;;;14.08;78.02;98689.97;5008264;28;20042;-67
2021/05/21 01:08:22;;;;;;;13.77;6.82;;;;;;;14.08;78.04;98703.31;5007333;28;20052;-67
2021/05/21 01:10:48;;;;;;;17.75;7.22;;;;;;;14.00;78.42;98707.31;5005187;28;20052;-71
2021/05/21 01:13:14;;;;;;;14.55;6.85;;;;;;;13.91;78.56;98687.31;5011329;28;20373;-68
2021/05/21 01:15:42;;;;;;;10.75;7.25;;;;;;;14.05;78.81;98705.28;5025515;28;20045;-66
2021/05/21 01:18:10;;;;;;;12.65;6.78;;;;;;;14.39;77.39;98719.50;5008824;28;20144;-69
2021/05/21 01:20:37;;;;;;;16.05;7.13;;;;;;;14.18;77.96;98701.91;5018490;28;20421;-68
2021/05/21 01:23:04;;;;;;;13.73;6.72;;;;;;;14.22;77.68;98708.84;5007941;28;20212;-82
2021/05/21 01:25:32;;;;;;;11.23;6.30;;;;;;;14.16;78.24;98717.09;5038212;28;20143;-68
2021/05/21 01:27:58;;;;;;;9.10;5.93;;;;;;;13.93;78.23;98695.22;5003404;28;20046;-66
2021/05/21 01:30:25;;;;;;;13.10;5.70;;;;;;;14.12;77.47;98715.53;5022227;28;20060;-67
2021/05/21 01:32:51;;;;;;;10.93;5.20;;;;;;;14.08;77.34;98715.78;5006664;28;20092;-71
2021/05/21 01:35:18;;;;;;;12.75;5.10;;;;;;;14.04;76.46;98680.41;5036564;28;20134;-74
2021/05/21 01:37:47;;;;;;;7.65;4.47;;;;;;;14.25;76.04;98722.03;5023619;28;20387;-70
2021/05/21 01:40:14;;;;;;;7.95;4.30;;;;;;;14.20;76.30;98709.84;4995111;28;20046;-71
2021/05/21 01:42:41;;;;;;;6.50;4.50;;;;;;;14.21;76.26;98720.47;5004709;28;20728;-72
2021/05/21 01:45:09;;;;;;;6.97;4.43;;;;;;;13.92;77.41;98731.66;5018453;28;20038;-69
2021/05/21 01:47:36;;;;;;;9.73;4.82;;;;;;;14.01;77.45;98739.22;5021377;28;20049;-70
2021/05/21 01:50:04;;;;;;;9.35;4.85;;;;;;;13.92;77.52;98715.69;5006489;28;20053;-70
2021/05/21 01:52:31;;;;;;;5.25;4.13;;;;;;;13.92;77.61;98731.66;5020222;28;20100;-73
2021/05/21 01:54:58;;;;;;;8.57;4.78;;;;;;;14.19;76.88;98732.94;5013012;28;20041;-69
2021/05/21 01:57:24;;;;;;;9.38;4.70;;;;;;;14.04;77.26;98743.53;5007101;28;20050;-69
2021/05/21 01:59:50;;;;;;;7.32;4.72;;;;;;;13.93;77.71;98744.09;5018757;28;20203;-69
2021/05/21 02:02:15;;;;;;;7.32;4.93;;;;;;;13.82;77.97;98741.91;5030375;28;20053;-70
2021/05/21 02:04:42;;;;;;;10.15;4.57;;;;;;;13.75;78.52;98744.97;5019495;28;20053;-67
2021/05/21 02:07:13;;;;;;;8.80;4.63;;;;;;;13.74;78.52;98745.91;5032070;28;20053;-69
2021/05/21 02:09:59;;;;;;;5.95;4.32;;;;;;;13.73;79.03;98746.88;5015572;28;20056;-71
2021/05/21 02:12:27;;;;;;;8.63;5.35;;;;;;;13.74;78.71;98748.59;5009880;28;20052;-69
2021/05/21 02:14:54;;;;;;;10.50;5.18;;;;;;;13.70;78.92;98739.84;4984863;28;20579;-79
2021/05/21 02:17:20;;;;;;;13.73;4.40;;;;;;;13.80;76.79;98745.59;5006645;28;20792;-69
2021/05/21 02:19:47;;;;;;;5.30;2.95;;;;;;;13.61;76.56;98760.78;5011284;28;20085;-69
2021/05/21 02:22:13;;;;;;;6.85;3.22;;;;;;;13.71;74.23;98754.06;5040540;28;20485;-69
2021/05/21 02:24:39;;;;;;;3.88;1.80;;;;;;;13.65;71.16;98749.88;5022560;28;20582;-68
2021/05/21 02:27:06;;;;;;;4.00;1.55;;;;;;;13.64;70.75;98758.81;5016875;28;20113;-70
2021/05/21 02:29:31;;;;;;;11.25;1.17;;;;;;;13.71;68.92;98754.06;5023548;28;20075;-67
2021/05/21 02:31:57;;;;;;;4.18;1.10;;;;;;;13.51;69.39;98730.19;4998790;28;20121;-67
2021/05/21 02:34:23;;;;;;;9.40;1.25;;;;;;;13.55;69.40;98755.72;5014943;28;20351;-68
2021/05/21 02:36:49;;;;;;;3.95;1.00;;;;;;;13.48;69.55;98751.63;5030356;28;20129;-69
2021/05/21 02:39:15;;;;;;;16.20;1.58;;;;;;;13.60;69.67;98761.69;4988526;28;20050;-70
2021/05/21 02:41:41;;;;;;;13.30;1.70;;;;;;;13.54;69.93;98733.53;5015792;28;20041;-74
2021/05/21 02:44:06;;;;;;;6.63;1.80;;;;;;;13.50;70.61;98739.13;5022207;28;20134;-72
2021/05/21 02:46:32;;;;;;;7.40;1.67;;;;;;;13.98;70.33;98746.50;5020209;28;20049;-70
2021/05/21 02:48:58;;;;;;;3.03;1.30;;;;;;;14.06;70.63;98754.97;5005928;28;20042;-70
2021/05/21 02:51:24;;;;;;;2.95;0.90;;;;;;;13.81;71.56;98756.19;5013819;28;20053;-72
2021/05/21 02:53:50;;;;;;;0.93;0.70;;;;;;;13.64;71.29;98766.81;5003804;28;20046;-70
2021/05/21 02:56:16;;;;;;;2.20;0.60;;;;;;;13.60;70.94;98773.22;5020478;28;20046;-72
2021/05/21 02:58:42;;;;;;;1.48;0.77;;;;;;;13.71;70.56;98762.03;4988600;28;20046;-71
2021/05/21 03:01:08;;;;;;;2.20;0.82;;;;;;;13.74;70.32;98768.06;5017615;28;20127;-71
2021/05/21 03:03:34;;;;;;;1.00;0.60;;;;;;;13.47;70.71;98755.22;5006342;28;20125;-72
2021/05/21 03:06:00;;;;;;;2.60;0.75;;;;;;;13.33;70.74;98758.53;5005043;28;20051;-70
2021/05/21 03:08:25;;;;;;;0.90;0.45;;;;;;;13.25;71.44;98775.81;4990129;28;20046;-76
2021/05/21 03:10:51;;;;;;;4.78;0.63;;;;;;;13.35;71.54;98770.00;4987456;28;20053;-72
2021/05/21 03:13:17;;;;;;;0.60;0.50;;;;;;;13.31;72.07;98767.53;4994590;28;20057;-71
2021/05/21 03:15:44;;;;;;;7.93;0.70;;;;;;;13.46;71.39;98780.16;5010637;28;20142;-73
2021/05/21 03:18:24;;;;;;;3.75;0.50;;;;;;;13.20;72.03;98775.16;5001262;28;20099;-74
2021/05/21 03:20:51;;;;;;;7.85;0.77;;;;;;;13.53;71.46;98755.81;5022061;28;20459;-73
2021/05/21 03:23:18;;;;;;;3.15;0.60;;;;;;;13.28;71.72;98788.97;4991467;28;20056;-72
2021/05/21 03:25:44;;;;;;;1.25;0.60;;;;;;;13.27;72.01;98772.16;4990700;28;20072;-71
2021/05/21 03:28:14;;;;;;;1.65;0.70;;;;;;;13.18;72.50;98769.06;5022226;28;20053;-72
2021/05/21 03:30:41;;;;;;;2.42;0.68;;;;;;;13.17;72.54;98772.63;5023343;28;20421;-70
2021/05/21 03:33:08;;;;;;;3.00;0.68;;;;;;;13.09;73.26;98782.75;5023872;28;20435;-71
2021/05/21 03:35:35;;;;;;;2.67;1.02;;;;;;;13.20;72.80;98773.38;5020310;28;20046;-74
2021/05/21 03:38:06;;;;;;;1.48;0.50;;;;;;;13.20;73.30;98794.66;5004320;28;20589;-72
2021/05/21 03:40:34;;;;;;;1.65;0.60;;;;;;;13.20;72.66;98789.34;4994580;28;20050;-77
2021/05/21 03:43:00;;;;;;;0.90;0.70;;;;;;;13.17;73.14;98785.94;5005061;28;20180;-74
2021/05/21 03:45:28;;;;;;;6.43;0.68;;;;;;;13.12;73.38;98788.81;5017252;28;20661;-72
2021/05/21 03:47:55;;;;;;;0.75;0.50;;;;;;;13.05;73.37;98790.03;5007369;28;20045;-72
2021/05/21 03:50:22;;;;;;;1.20;0.57;;;;;;;13.25;73.45;98778.47;5005252;28;20061;-70
2021/05/21 03:52:49;;;;;;;3.08;0.50;;;;;;;13.17;73.43;98775.28;5019606;28;20042;-70
2021/05/21 03:55:17;;;;;;;3.55;0.52;;;;;;;13.02;73.95;98776.03;5010953;28;20521;-68
2021/05/21 03:57:44;;;;;;;2.42;0.60;;;;;;;13.22;73.54;98778.63;5007647;28;20053;-70
2021/05/21 04:00:16;;;;;;;2.20;0.70;;;;;;;13.22;73.81;98795.44;5017217;28;20124;-68
2021/05/21 04:02:42;;;;;;;5.47;0.60;;;;;;;13.04;74.12;98787.44;4999818;28;20058;-72
2021/05/21 04:05:09;;;;;;;0.73;0.50;;;;;;;13.01;74.30;98776.94;5005682;28;20052;-75
2021/05/21 04:07:35;;;;;;;0.90;0.52;;;;;;;13.14;74.18;98784.28;5012825;28;20034;-72
2021/05/21 04:10:00;;;;;;;1.67;0.47;;;;;;;12.86;75.25;98797.06;5018229;28;20112;-71
2021/05/21 04:12:28;;;;;;;8.30;0.50;;;;;;;12.84;76.00;98806.06;5019833;28;20449;-68
2021/05/21 04:14:55;;;;;;;7.22;0.80;;;;;;;13.00;75.76;98794.72;5006823;28;20113;-72
2021/05/21 04:17:23;;;;;;;3.00;0.40;;;;;;;12.80;76.73;98812.44;5023149;28;20046;-69
2021/05/21 04:19:49;;;;;;;11.38;0.88;;;;;;;12.83;76.61;98802.56;5020394;28;20049;-69
2021/05/21 04:22:16;;;;;;;4.68;0.50;;;;;;;12.83;76.34;98804.34;5021621;28;20524;-81
2021/05/21 04:24:42;;;;;;;3.10;0.70;;;;;;;13.00;76.02;98808.00;5010125;28;20049;-69
2021/05/21 04:27:09;;;;;;;3.22;0.57;;;;;;;12.99;75.93;98821.38;5013708;28;20053;-70
2021/05/21 04:29:39;;;;;;;0.98;0.70;;;;;;;12.84;76.73;98814.91;5035770;28;20475;-68
2021/05/21 04:32:06;;;;;;;3.35;0.60;;;;;;;12.91;76.32;98794.22;5017762;28;20611;-69
2021/05/21 04:34:33;;;;;;;9.27;1.13;;;;;;;13.13;75.74;98816.28;5007658;28;20046;-67
2021/05/21 04:36:59;;;;;;;3.55;0.80;;;;;;;13.14;75.34;98810.91;5023535;28;20567;-67
2021/05/21 04:39:25;;;;;;;1.95;0.40;;;;;;;12.99;76.02;98824.91;5012593;28;20421;-69
2021/05/21 04:41:54;;;;;;;7.10;0.68;;;;;;;13.14;75.81;98820.72;5006806;28;20033;-71
2021/05/21 04:44:21;;;;;;;0.70;0.50;;;;;;;12.94;76.41;98824.22;5040507;28;20140;-70
2021/05/21 04:46:47;;;;;;;0.90;0.70;;;;;;;13.00;77.03;98826.66;5017683;28;20049;-72
2021/05/21 04:49:31;;;;;;;1.95;0.50;;;;;;;12.92;77.54;98833.19;5013861;28;20045;-67
2021/05/21 04:52:02;;;;;;;2.60;1.23;;;;;;;12.65;79.35;98827.28;4992970;28;20073;-72
2021/05/21 04:54:29;;;;;;;6.18;0.60;;;;;;;12.64;79.90;98830.00;5018591;28;20595;-70
2021/05/21 04:56:55;;;;;;;1.08;0.52;;;;;;;12.59;79.88;98810.75;5004866;28;20549;-70
2021/05/21 04:59:22;;;;;;;3.95;0.85;;;;;;;12.73;79.90;98830.47;5013371;28;20049;-70
2021/05/21 05:01:48;;;;;;;2.22;0.70;;;;;;;12.64;79.79;98836.22;5020236;28;20445;-81
2021/05/21 05:04:14;;;;;;;1.67;0.98;;;;;;;12.71;79.34;98828.81;5021171;28;20050;-70
2021/05/21 05:06:41;;;;;;;1.63;0.55;;;;;;;12.80;78.46;98821.31;5007981;28;20469;-71
2021/05/21 05:09:07;;;;;;;2.80;0.85;;;;;;;13.06;77.78;98825.50;5007880;28;20528;-70
2021/05/21 05:11:33;;;;;;;5.32;0.70;;;;;;;13.14;76.78;98832.19;4978526;28;20053;-70
2021/05/21 05:14:00;;;;;;;2.90;0.88;;;;;;;13.19;77.01;98832.88;4999043;28;20073;-70
2021/05/21 05:16:26;;;;;;;1.67;0.80;;;;;;;13.12;76.69;98825.22;5042786;28;20041;-71
2021/05/21 05:18:54;;;;;;;6.68;1.13;;;;;;;13.12;77.36;98844.72;5024308;28;20242;-77
2021/05/21 05:21:20;;;;;;;3.88;0.80;;;;;;;13.08;77.30;98848.47;5021125;28;20034;-72
2021/05/21 05:23:47;;;;;;;2.25;0.63;;;;;;;13.01;77.12;98857.63;5022936;28;20129;-69
2021/05/21 05:26:13;;;;;;;1.50;0.60;;;;;;;13.02;76.82;98853.19;5006506;28;20192;-70
2021/05/21 05:28:44;;;;;;;3.65;1.05;;;;;;;13.20;76.73;98852.34;5010702;28;20033;-69
2021/05/21 05:31:10;;;;;;;3.83;1.10;;;;;;;13.22;76.30;98854.00;5021123;28;20104;-70
2021/05/21 05:33:41;;;;;;;3.58;1.63;;;;;;;13.25;76.17;98860.97;4974436;28;20041;-71
2021/05/21 05:36:08;;;;;;;7.50;1.83;;;;;;;13.36;75.50;98856.94;4983618;28;20049;-71
2021/05/21 05:38:34;;;;;;;6.75;1.77;;;;;;;13.14;75.80;98874.78;5026935;28;20061;-69
2021/05/21 05:41:02;;;;;;;5.28;2.53;;;;;;;13.23;75.74;98865.53;5014125;28;20049;-68
2021/05/21 05:43:28;;;;;;;3.90;2.38;;;;;;;13.36;75.40;98867.56;5005679;28;20046;-76
2021/05/21 05:45:54;;;;;;;2.05;1.85;;;;;;;13.22;76.12;98875.31;5018734;28;20136;-70
2021/05/21 05:48:20;;;;;;;1.92;1.40;;;;;;;13.34;75.66;98874.75;5011096;28;20045;-66
2021/05/21 05:51:01;;;;;;;2.45;1.52;;;;;;;13.42;75.84;98871.75;5021834;28;20048;-72
2021/05/21 05:53:34;;;;;;;2.42;1.50;;;;;;;13.20;75.69;98863.88;5006436;28;20041;-72
2021/05/21 05:59:50;;;;;;;2.80;2.05;;;;;;;13.57;74.41;98869.25;4988499;28;19921;-71
2021/05/21 06:02:25;;;;;;;4.65;2.45;;;;;;;13.70;74.03;98885.53;4983694;28;20051;-68
2021/05/21 06:04:51;;;;;;;7.32;2.53;;;;;;;13.73;74.09;98872.09;4968166;28;20058;-79
2021/05/21 06:07:17;;;;;;;5.90;1.50;;;;;;;13.60;73.34;98877.09;4966350;28;20549;-70
2021/05/21 06:09:43;;;;;;;4.97;2.22;;;;;;;13.66;74.12;98870.63;4967870;28;20060;-70
2021/05/21 06:12:10;;;;;;;3.97;2.30;;;;;;;13.99;73.34;98893.00;4968018;28;20606;-74
2021/05/21 06:14:36;;;;;;;3.90;2.15;;;;;;;13.75;73.49;98897.72;4984002;28;20054;-79
2021/05/21 06:17:02;;;;;;;6.38;2.70;;;;;;;13.74;73.79;98885.31;4968485;28;20127;-69
2021/05/21 06:19:28;;;;;;;2.90;1.52;;;;;;;13.69;73.70;98884.66;4968039;28;20137;-70
2021/05/21 06:21:54;;;;;;;6.97;2.40;;;;;;;13.80;73.01;98889.47;4968474;28;20050;-70
2021/05/21 06:24:21;;;;;;;4.70;1.77;;;;;;;13.72;73.10;98887.19;4966869;28;20050;-69
2021/05/21 06:29:32;;;;;;;8.40;1.80;;;;;;;13.86;72.77;98906.03;4983793;28;20058;-78
2021/05/21 06:31:58;;;;;;;1.65;1.10;;;;;;;14.07;71.97;98912.16;4986879;28;20137;-69
2021/05/21 06:34:25;;;;;;;4.35;1.70;;;;;;;13.93;72.49;98877.34;5003974;28;20735;-69
2021/05/21 06:36:50;;;;;;;3.47;1.60;;;;;;;14.09;72.33;98907.66;4988326;28;20065;-70
2021/05/21 06:39:16;;;;;;;4.32;1.40;;;;;;;13.80;73.27;98910.78;5005433;28;20042;-71
2021/05/21 06:41:44;;;;;;;1.98;1.15;;;;;;;14.15;72.15;98907.34;4989169;28;20406;-72
2021/05/21 06:44:10;;;;;;;4.20;1.40;;;;;;;14.03;72.55;98907.94;5010887;28;20053;-71
2021/05/21 06:46:36;;;;;;;7.32;2.28;;;;;;;14.52;71.23;98914.47;5024077;28;20053;-78
2021/05/21 06:49:05;;;;;;;1.02;0.60;;;;;;;14.24;71.28;98890.06;5023905;28;20053;-70
2021/05/21 06:51:31;;;;;;;0.98;0.80;;;;;;;14.45;71.58;98915.69;5024758;28;20037;-71
2021/05/21 06:53:57;;;;;;;2.70;0.70;;;;;;;14.55;70.77;98923.16;5024842;28;20052;-71
2021/05/21 06:56:23;;;;;;;3.40;1.00;;;;;;;14.48;70.51;98921.72;5015111;28;20041;-70
2021/05/21 06:58:49;;;;;;;0.65;0.50;;;;;;;14.12;71.24;98910.13;5016933;28;20378;-71
2021/05/21 07:01:15;;;;;;;1.15;0.60;;;;;;;14.37;70.56;98918.75;5012795;28;20596;-71
2021/05/21 07:03:41;;;;;;;1.02;0.60;;;;;;;14.04;71.98;98912.31;5014336;28;20604;-72
2021/05/21 07:06:07;;;;;;;3.03;0.50;;;;;;;14.21;71.90;98944.41;5013391;28;20136;-72
2021/05/21 07:08:33;;;;;;;3.03;0.95;;;;;;;14.39;71.26;98921.34;5015727;28;20155;-70
2021/05/21 07:10:59;;;;;;;4.20;0.75;;;;;;;14.35;71.07;98941.09;5032138;28;20050;-72
2021/05/21 07:13:28;;;;;;;0.52;0.45;;;;;;;14.04;72.39;98922.97;4994449;28;20613;-77
2021/05/21 07:15:54;;;;;;;2.05;0.50;;;;;;;14.33;71.23;98941.16;5018366;28;20037;-75
2021/05/21 07:18:21;;;;;;;4.00;0.60;;;;;;;14.23;71.07;98947.88;5012457;28;20061;-72
2021/05/21 07:20:47;;;;;;;5.28;0.80;;;;;;;14.26;71.54;98952.19;5020797;28;20045;-74
2021/05/21 07:23:15;;;;;;;1.65;0.88;;;;;;;14.53;70.76;98949.06;5008756;28;20164;-74
2021/05/21 07:25:42;;;;;;;8.63;0.80;;;;;;;14.49;70.21;98944.81;5015034;28;20050;-68
2021/05/21 07:28:08;;;;;;;0.50;0.50;;;;;;;14.34;70.88;98961.56;5011175;28;20359;-70
2021/05/21 07:30:34;;;;;;;1.83;0.77;;;;;;;14.65;70.29;98948.47;5016699;28;20049;-72
2021/05/21 07:33:00;;;;;;;1.75;0.80;;;;;;;14.60;70.73;98952.28;4994238;28;20115;-69
2021/05/21 07:35:26;;;;;;;1.83;0.70;;;;;;;14.76;70.58;98961.28;5031862;28;20050;-69
2021/05/21 07:37:55;;;;;;;2.70;0.80;;;;;;;14.51;71.48;98952.75;5015447;28;20175;-68
2021/05/21 07:40:24;;;;;;;1.10;0.73;;;;;;;14.73;71.57;98972.97;4988021;28;20052;-71
2021/05/21 07:42:50;;;;;;;1.48;0.80;;;;;;;14.65;71.17;98967.16;5029337;28;20050;-67
2021/05/21 07:45:16;;;;;;;1.83;0.68;;;;;;;14.84;70.70;98985.78;5019037;28;20050;-66
2021/05/21 07:47:45;;;;;;;2.17;1.10;;;;;;;14.72;70.54;98981.03;5016958;28;20318;-66
2021/05/21 07:50:12;;;;;;;2.40;0.70;;;;;;;14.89;69.85;98976.59;5014204;28;20049;-67
2021/05/21 07:52:38;;;;;;;3.50;0.80;;;;;;;14.97;68.93;98978.88;5016517;28;20080;-68
2021/05/21 07:55:06;;;;;;;6.25;0.93;;;;;;;14.89;69.35;98981.94;5015499;28;20038;-76
2021/05/21 07:57:40;;;;;;;1.65;0.90;;;;;;;14.46;70.89;98979.63;5016198;28;20126;-70
2021/05/21 08:00:11;;;;;;;4.35;0.90;;;;;;;14.40;71.20;98982.59;5018706;28;20086;-75
2021/05/21 08:02:40;;;;;;;4.35;0.80;;;;;;;14.39;71.61;98991.53;5011858;28;20076;-75
2021/05/21 08:05:11;;;;;;;4.35;0.80;;;;;;;14.51;71.24;98998.94;5010609;28;20033;-71
2021/05/21 08:07:38;;;;;;;2.10;0.77;;;;;;;14.44;71.39;98999.31;4999124;28;20140;-67
2021/05/21 08:10:07;;;;;;;3.88;0.80;;;;;;;14.60;71.31;99008.31;5011469;28;20092;-75
2021/05/21 08:12:36;;;;;;;2.10;0.50;;;;;;;14.91;70.48;99001.41;5016139;28;20041;-76
2021/05/21 08:15:04;;;;;;;1.77;0.90;;;;;;;15.42;68.88;99001.47;5025940;28;20091;-66
2021/05/21 08:17:33;;;;;;;3.85;0.80;;;;;;;14.68;70.35;98977.63;4985269;28;20041;-75
2021/05/21 08:20:01;;;;;;;1.83;0.73;;;;;;;15.00;70.38;99008.09;5032292;28;20084;-69
2021/05/21 08:22:29;;;;;;;6.38;0.90;;;;;;;15.13;69.61;99010.09;5020257;28;20045;-70
2021/05/21 08:24:58;;;;;;;2.15;0.70;;;;;;;14.91;68.87;99005.91;4994650;28;20046;-64
2021/05/21 08:27:24;;;;;;;3.92;0.70;;;;;;;14.89;68.48;99010.44;5006346;28;20040;-67
2021/05/21 08:29:56;;;;;;;1.45;0.70;;;;;;;14.92;68.49;99010.28;5000417;28;20041;-66
2021/05/21 08:32:22;;;;;;;1.13;0.70;;;;;;;15.07;67.33;99007.69;5024823;28;20119;-69
2021/05/21 08:35:06;;;;;;;2.75;0.80;;;;;;;15.24;66.68;99023.75;5017896;28;20124;-67
2021/05/21 08:37:32;;;;;;;4.95;0.70;;;;;;;15.58;65.45;99031.81;5015786;28;20072;-70
2021/05/21 08:39:58;;;;;;;4.30;0.73;;;;;;;16.29;62.43;99009.22;5018166;28;20068;-75
2021/05/21 08:42:30;;;;;;;3.88;0.90;;;;;;;16.60;61.53;99020.00;5013888;28;20045;-77
2021/05/21 08:44:57;;;;;;;6.95;0.80;;;;;;;16.38;60.92;99024.81;5021846;28;20045;-68
2021/05/21 08:47:23;;;;;;;2.15;0.60;;;;;;;16.45;60.47;99039.59;5038031;28;20046;-68
2021/05/21 08:50:01;;;;;;;2.20;0.70;;;;;;;17.37;58.25;99029.78;5015220;28;20049;-67
2021/05/21 08:52:28;;;;;;;0.88;0.70;;;;;;;18.68;55.04;99043.09;5037336;28;20054;-66
2021/05/21 08:54:54;;;;;;;10.75;1.00;;;;;;;18.91;53.33;99027.19;5016624;28;20045;-69
2021/05/21 08:57:20;;;;;;;3.95;0.70;;;;;;;19.02;53.63;99032.72;5017179;28;20049;-67
2021/05/21 08:59:47;;;;;;;7.03;0.90;;;;;;;19.94;51.70;99037.22;5018638;28;20060;-69
2021/05/21 09:02:33;;;;;;;4.80;0.80;;;;;;;19.60;51.92;99030.59;5019159;28;20128;-73
2021/05/21 09:05:02;;;;;;;1.50;0.40;;;;;;;20.03;49.45;99045.53;4997154;28;20052;-70
2021/05/21 09:07:37;;;;;;;1.67;0.50;;;;;;;19.60;51.51;99037.78;5017841;28;20038;-68
2021/05/21 09:10:19;;;;;;;4.47;0.40;;;;;;;18.05;54.88;99032.72;5013464;28;20053;-70
2021/05/21 09:12:50;;;;;;;3.05;0.60;;;;;;;17.50;56.87;99034.34;5016418;28;20141;-69
2021/05/21 09:15:18;;;;;;;10.15;0.73;;;;;;;17.30;57.65;99034.63;5015509;28;20042;-71
2021/05/21 09:17:57;;;;;;;2.95;0.70;;;;;;;17.21;58.90;99016.41;5016579;28;20045;-69
2021/05/21 09:20:52;;;;;;;4.82;1.10;;;;;;;17.66;57.26;99036.97;5019799;28;20505;-73
2021/05/21 09:23:20;;;;;;;2.50;0.60;;;;;;;16.98;58.63;99035.63;5012902;28;20517;-72
2021/05/21 09:25:49;;;;;;;0.80;0.60;;;;;;;16.74;59.86;99044.19;4997922;28;20037;-75
2021/05/21 09:28:36;;;;;;;3.50;0.60;;;;;;;16.80;59.69;99058.09;4997642;28;20084;-73
2021/05/21 09:31:06;;;;;;;7.72;1.00;;;;;;;17.21;59.14;99045.88;4985317;28;20054;-71
2021/05/21 09:33:34;;;;;;;1.98;0.68;;;;;;;17.19;59.09;99053.16;4999986;28;20048;-74
2021/05/21 09:36:00;;;;;;;4.18;0.77;;;;;;;16.94;59.44;99058.16;5017905;28;20041;-71
2021/05/21 09:38:26;;;;;;;3.47;0.80;;;;;;;17.27;58.85;99053.56;5016393;28;20175;-74
2021/05/21 09:40:52;;;;;;;6.00;1.13;;;;;;;17.39;58.49;99052.84;5019854;28;20425;-72
2021/05/21 09:43:23;;;;;;;1.40;0.63;;;;;;;17.33;58.59;99055.88;5014905;28;20037;-65
2021/05/21 09:45:49;;;;;;;6.57;1.10;;;;;;;17.32;57.91;99064.88;4990182;28;20637;-66
2021/05/21 09:48:16;;;;;;;3.05;1.10;;;;;;;16.86;59.06;99055.06;5002643;28;20144;-66
2021/05/21 09:50:50;;;;;;;2.88;1.73;;;;;;;16.78;59.66;99064.50;5013874;28;20052;-72
2021/05/21 09:53:22;;;;;;;6.70;1.40;;;;;;;16.77;59.79;99074.31;5015395;28;20041;-70
2021/05/21 09:55:53;;;;;;;2.03;0.70;;;;;;;16.64;61.04;99081.31;5035351;28;20040;-66
2021/05/21 09:58:32;;;;;;;4.32;1.50;;;;;;;16.42;61.48;99088.78;5012232;28;20042;-70
2021/05/21 10:01:07;;;;;;;6.38;1.30;;;;;;;16.24;61.92;99087.09;5015470;28;20072;-70
2021/05/21 10:03:55;;;;;;;1.88;0.90;;;;;;;16.21;61.82;99097.06;5011067;28;20670;-67
2021/05/21 10:06:42;;;;;;;2.95;1.00;;;;;;;16.26;61.01;99098.56;5026720;28;20501;-71
2021/05/21 10:09:26;;;;;;;1.40;0.80;;;;;;;16.23;60.43;99113.91;5014882;28;20041;-69
2021/05/21 10:12:32;;;;;;;6.38;1.65;;;;;;;16.19;59.45;99099.84;5016728;28;20064;-71
2021/05/21 10:15:17;;;;;;;5.10;0.70;;;;;;;16.44;58.34;99113.66;5036168;28;20103;-74
2021/05/21 10:18:03;;;;;;;2.38;0.75;;;;;;;16.26;57.43;99119.94;5017116;28;20049;-77
2021/05/21 10:20:48;;;;;;;1.17;0.45;;;;;;;16.17;58.53;99122.25;5010918;28;20049;-73
2021/05/21 10:24:06;;;;;;;4.85;0.65;;;;;;;16.55;57.93;99130.00;5019254;28;20048;-69
2021/05/21 10:26:58;;;;;;;2.65;0.80;;;;;;;16.40;58.54;99144.19;4991187;28;20046;-68
2021/05/21 10:29:55;;;;;;;3.05;0.50;;;;;;;16.26;58.28;99130.66;5021734;28;20053;-68
2021/05/21 10:32:40;;;;;;;1.60;0.77;;;;;;;16.96;56.89;99142.00;5011542;28;20160;-67
2021/05/21 10:35:24;;;;;;;4.47;0.70;;;;;;;18.22;53.56;99140.84;5015282;28;20037;-67
2021/05/21 10:38:25;;;;;;;5.53;1.05;;;;;;;18.56;52.18;99146.78;5007008;28;20118;-68
2021/05/21 10:41:18;;;;;;;6.90;1.60;;;;;;;18.90;51.37;99161.66;5012886;28;20052;-69
2021/05/21 10:43:59;;;;;;;4.53;0.60;;;;;;;19.09;50.34;99157.69;5013769;28;20188;-69
2021/05/21 10:46:36;;;;;;;3.80;1.40;;;;;;;19.23;49.87;99148.75;4987277;28;20045;-66
2021/05/21 10:49:03;;;;;;;2.65;0.60;;;;;;;18.87;51.83;99160.00;4998641;28;20029;-68
2021/05/21 10:51:49;;;;;;;4.78;0.68;;;;;;;17.98;54.16;99146.75;5018047;28;20099;-71
2021/05/21 10:54:36;;;;;;;6.03;0.60;;;;;;;17.56;54.56;99157.28;5013329;28;20092;-72
2021/05/21 10:57:14;;;;;;;3.75;2.00;;;;;;;16.95;56.74;99167.03;5009604;28;20729;-69
2021/05/21 10:59:49;;;;;;;7.57;1.67;;;;;;;16.98;57.36;99176.72;5012996;28;20033;-67
2021/05/21 11:02:15;;;;;;;2.05;1.25;;;;;;;17.33;56.30;99173.78;5025587;28;20045;-73
2021/05/21 11:04:45;;;;;;;5.55;0.80;;;;;;;17.14;55.53;99178.44;5008999;28;20094;-76
2021/05/21 11:07:37;;;;;;;4.88;1.58;;;;;;;17.43;55.69;99180.41;5023085;28;20053;-72
2021/05/21 11:10:05;;;;;;;14.15;3.33;;;;;;;17.20;55.71;99196.00;5004314;28;20061;-70
2021/05/21 11:13:01;;;;;;;3.97;2.20;;;;;;;17.11;55.21;99189.34;4986433;28;20041;-67
2021/05/21 11:15:33;;;;;;;2.15;1.05;;;;;;;17.36;54.25;99197.75;5014099;28;20049;-72
2021/05/21 11:18:21;;;;;;;4.43;0.70;;;;;;;17.03;55.53;99206.78;5008507;28;20073;-70
2021/05/21 11:21:14;;;;;;;3.95;0.80;;;;;;;17.13;55.15;99206.19;5017258;28;20045;-68
2021/05/21 11:23:41;;;;;;;6.03;1.23;;;;;;;17.32;54.86;99203.34;4998419;28;20053;-70
2021/05/21 11:26:16;;;;;;;4.10;0.70;;;;;;;17.03;54.69;99198.75;5030170;28;20056;-71
2021/05/21 11:28:43;;;;;;;6.72;0.95;;;;;;;17.25;53.31;99161.81;5001723;28;20042;-69
2021/05/21 11:31:10;;;;;;;0.50;0.47;;;;;;;17.64;52.92;99215.81;5016299;28;20131;-71
2021/05/21 11:33:37;;;;;;;2.45;0.65;;;;;;;17.66;52.71;99230.91;5015055;28;20108;-78
2021/05/21 11:36:40;;;;;;;1.77;0.60;;;;;;;17.84;52.47;99231.63;5009010;28;20409;-69
2021/05/21 11:39:15;;;;;;;3.22;0.73;;;;;;;18.30;51.41;99236.06;5021455;28;20058;-69
2021/05/21 11:41:44;;;;;;;3.65;0.77;;;;;;;18.04;50.92;99217.97;4989240;28;20049;-67
2021/05/21 11:44:13;;;;;;;2.42;0.60;;;;;;;17.98;52.32;99243.31;5003305;28;20076;-69
2021/05/21 11:46:48;;;;;;;7.10;0.77;;;;;;;17.88;51.13;99220.66;5021076;28;20073;-69
2021/05/21 11:49:19;;;;;;;4.93;0.77;;;;;;;17.96;50.81;99244.38;5007059;28;20104;-69
2021/05/21 11:52:03;;;;;;;7.35;2.13;;;;;;;18.21;50.52;99246.47;4996828;28;20140;-69